Time;durP1;ratioP1;P1;durP2;ratioP2;P2;SDS_P1;SDS_P2;PMS_P1;PMS_P2;Temp;Humidity;BMP_temperature;BMP_pressure;BME280_temperature;BME280_humidity;BME280_pressure;Samples;Min_cycle;Max_cycle;Signal;HPM_P1;HPM_P2
2022/01/19 00:01:16;;;;;;;6.18;2.65;;;;;;;;;;5017443;28;20128;-79
2022/01/19 00:03:43;;;;;;;8.65;3.15;;;;;;;;;;5017796;28;20053;-80
2022/01/19 00:06:10;;;;;;;6.55;3.10;;;;;;;;;;5018587;28;20562;-80
2022/01/19 00:08:37;;;;;;;6.25;2.70;;;;;;;;;;5019832;28;20050;-80
2022/01/19 00:11:04;;;;;;;11.13;3.30;;;;;;;;;;5020431;28;20045;-80
2022/01/19 00:13:31;;;;;;;7.45;2.75;;;;;;;;;;5018723;28;20042;-79
2022/01/19 00:15:57;;;;;;;6.82;2.50;;;;;;;;;;5018529;28;20075;-79
2022/01/19 00:18:26;;;;;;;7.63;2.80;;;;;;;;;;5018121;28;20042;-79
2022/01/19 00:20:54;;;;;;;9.30;3.35;;;;;;;;;;5017566;28;20046;-79
2022/01/19 00:23:23;;;;;;;8.70;3.03;;;;;;;;;;5018238;28;20053;-79
2022/01/19 00:25:51;;;;;;;7.68;2.97;;;;;;;;;;5023193;28;20053;-80
2022/01/19 00:28:18;;;;;;;8.25;2.85;;;;;;;;;;5038213;28;20029;-79
2022/01/19 00:30:45;;;;;;;10.27;3.97;;;;;;;;;;5031047;28;20053;-79
2022/01/19 00:33:13;;;;;;;9.73;3.58;;;;;;;;;;5021235;28;20042;-79
2022/01/19 00:35:42;;;;;;;8.30;3.10;;;;;;;;;;5021821;28;20050;-79
2022/01/19 00:38:10;;;;;;;10.35;3.85;;;;;;;;;;5019634;28;20042;-80
2022/01/19 00:40:38;;;;;;;11.50;3.55;;;;;;;;;;5017478;28;20104;-79
2022/01/19 00:43:05;;;;;;;8.45;4.40;;;;;;;;;;5015826;28;20100;-79
2022/01/19 00:45:32;;;;;;;8.77;3.80;;;;;;;;;;5016190;28;20124;-79
2022/01/19 00:47:59;;;;;;;10.90;3.63;;;;;;;;;;5015699;28;20104;-78
2022/01/19 00:50:29;;;;;;;9.60;3.78;;;;;;;;;;5016213;28;20046;-78
2022/01/19 00:52:58;;;;;;;8.05;3.30;;;;;;;;;;5015852;28;20133;-78
2022/01/19 00:55:26;;;;;;;10.18;3.53;;;;;;;;;;5017132;28;20049;-78
2022/01/19 00:57:54;;;;;;;7.03;3.38;;;;;;;;;;5017150;28;20054;-79
2022/01/19 01:00:23;;;;;;;8.88;3.58;;;;;;;;;;5017875;28;20050;-79
2022/01/19 01:02:50;;;;;;;7.82;3.50;;;;;;;;;;5016228;28;20046;-79
2022/01/19 01:05:18;;;;;;;7.90;3.30;;;;;;;;;;5016309;28;20046;-79
2022/01/19 01:07:45;;;;;;;11.13;3.78;;;;;;;;;;5017838;28;20053;-79
2022/01/19 01:10:15;;;;;;;9.43;3.15;;;;;;;;;;5018575;28;20058;-79
2022/01/19 01:12:46;;;;;;;6.60;3.03;;;;;;;;;;5018173;28;20077;-80
2022/01/19 01:15:36;;;;;;;;;;;;;;;;;;5016311;28;20543;-79
2022/01/19 01:18:20;;;;;;;7.22;2.60;;;;;;;;;;5015979;28;19925;-78
2022/01/19 01:20:50;;;;;;;9.40;3.00;;;;;;;;;;5015794;28;20054;-80
2022/01/19 01:23:17;;;;;;;8.15;3.58;;;;;;;;;;5015247;28;20053;-80
2022/01/19 01:25:46;;;;;;;8.63;3.33;;;;;;;;;;5014984;28;20409;-79
2022/01/19 01:28:13;;;;;;;6.57;3.03;;;;;;;;;;5014903;28;20076;-80
2022/01/19 01:30:41;;;;;;;8.43;3.70;;;;;;;;;;5015913;28;20050;-79
2022/01/19 01:33:08;;;;;;;6.53;3.50;;;;;;;;;;5027835;28;20057;-79
2022/01/19 01:35:35;;;;;;;11.00;4.22;;;;;;;;;;5016076;28;20046;-79
2022/01/19 01:38:02;;;;;;;5.38;3.53;;;;;;;;;;5015604;28;20046;-79
2022/01/19 01:40:32;;;;;;;8.30;3.53;;;;;;;;;;5015060;28;20485;-79
2022/01/19 01:43:02;;;;;;;8.60;3.20;;;;;;;;;;5015822;28;20169;-79
2022/01/19 01:45:34;;;;;;;8.95;3.78;;;;;;;;;;5015540;28;20054;-79
2022/01/19 01:48:08;;;;;;;7.93;3.95;;;;;;;;;;5015698;28;20049;-80
2022/01/19 01:53:29;;;;;;;10.15;3.78;;;;;;;;;;5016167;28;20073;-79
2022/01/19 01:55:59;;;;;;;7.57;3.13;;;;;;;;;;5016333;28;20092;-79
2022/01/19 01:58:28;;;;;;;7.87;3.13;;;;;;;;;;5015700;28;20092;-79
2022/01/19 02:00:55;;;;;;;8.27;3.45;;;;;;;;;;5016221;28;20283;-79
2022/01/19 02:03:23;;;;;;;7.30;3.15;;;;;;;;;;5015561;28;20046;-79
2022/01/19 02:06:08;;;;;;;7.55;3.00;;;;;;;;;;5014989;28;20438;-79
2022/01/19 02:08:42;;;;;;;6.90;3.00;;;;;;;;;;5015049;28;20050;-79
2022/01/19 02:16:47;;;;;;;8.88;3.25;;;;;;;;;;5015347;28;20057;-79
2022/01/19 02:22:01;;;;;;;6.72;2.97;;;;;;;;;;5015778;28;20072;-79
2022/01/19 02:24:31;;;;;;;9.18;2.90;;;;;;;;;;5016102;28;20053;-79
2022/01/19 02:27:06;;;;;;;11.00;3.63;;;;;;;;;;5015073;28;20054;-79
2022/01/19 02:30:26;;;;;;;11.32;3.60;;;;;;;;;;5014191;28;20621;-79
2022/01/19 02:41:16;;;;;;;10.07;3.35;;;;;;;;;;5004039;28;20092;-79
2022/01/19 02:43:46;;;;;;;8.40;3.67;;;;;;;;;;5017731;28;20421;-79
2022/01/19 02:46:40;;;;;;;8.02;3.70;;;;;;;;;;5018012;28;20470;-79
2022/01/19 02:49:14;;;;;;;9.38;3.78;;;;;;;;;;5018124;28;20053;-79
2022/01/19 02:51:41;;;;;;;7.95;3.70;;;;;;;;;;5018076;28;20053;-79
2022/01/19 02:54:13;;;;;;;8.10;4.07;;;;;;;;;;5019491;28;20065;-79
2022/01/19 02:56:42;;;;;;;8.85;4.20;;;;;;;;;;5019768;28;20041;-80
2022/01/19 02:59:16;;;;;;;8.45;3.90;;;;;;;;;;5020309;28;20145;-79
2022/01/19 03:09:57;;;;;;;10.13;4.30;;;;;;;;;;5020805;28;20065;-79
2022/01/19 03:12:24;;;;;;;9.20;4.03;;;;;;;;;;5022752;28;20049;-79
2022/01/19 03:14:51;;;;;;;8.98;4.45;;;;;;;;;;5024269;28;20301;-80
2022/01/19 03:17:18;;;;;;;8.68;3.83;;;;;;;;;;5023793;28;20050;-80
2022/01/19 03:19:45;;;;;;;10.32;4.40;;;;;;;;;;5023038;28;20045;-79
2022/01/19 03:22:12;;;;;;;12.75;4.75;;;;;;;;;;5039638;28;20062;-78
2022/01/19 03:24:48;;;;;;;10.02;4.80;;;;;;;;;;5033659;28;20088;-80
2022/01/19 03:27:17;;;;;;;12.82;4.57;;;;;;;;;;5018872;28;20427;-80
2022/01/19 03:29:44;;;;;;;9.25;4.50;;;;;;;;;;5018549;28;20305;-80
2022/01/19 03:32:11;;;;;;;12.68;4.90;;;;;;;;;;5018874;28;20100;-79
2022/01/19 03:34:39;;;;;;;9.55;3.72;;;;;;;;;;5017053;28;20050;-80
2022/01/19 03:37:06;;;;;;;12.95;5.03;;;;;;;;;;5017607;28;20048;-80
2022/01/19 03:39:33;;;;;;;10.93;4.82;;;;;;;;;;5018608;28;20100;-80
2022/01/19 03:42:01;;;;;;;8.68;4.63;;;;;;;;;;5020341;28;20149;-79
2022/01/19 03:44:29;;;;;;;10.68;5.10;;;;;;;;;;5018854;28;20507;-79
2022/01/19 03:46:58;;;;;;;9.18;5.13;;;;;;;;;;5015681;28;20108;-79
2022/01/19 03:49:28;;;;;;;10.40;5.18;;;;;;;;;;5015976;28;20148;-79
2022/01/19 03:51:58;;;;;;;12.90;5.10;;;;;;;;;;5026457;23;20065;-77
2022/01/19 03:54:26;;;;;;;14.70;5.17;;;;;;;;;;4993208;28;20198;-77
2022/01/19 03:56:53;;;;;;;9.15;4.80;;;;;;;;;;4995220;28;20050;-76
2022/01/19 03:59:20;;;;;;;13.40;4.95;;;;;;;;;;4995369;28;20097;-77
2022/01/19 04:01:51;;;;;;;11.50;5.40;;;;;;;;;;4994645;28;20633;-77
2022/01/19 04:04:35;;;;;;;14.70;5.20;;;;;;;;;;4995712;28;20050;-79
2022/01/19 04:07:08;;;;;;;12.48;5.55;;;;;;;;;;4995899;28;20058;-79
2022/01/19 04:09:37;;;;;;;12.63;6.40;;;;;;;;;;4999467;28;20058;-78
2022/01/19 04:12:04;;;;;;;11.57;5.47;;;;;;;;;;4998981;28;20050;-79
2022/01/19 04:14:31;;;;;;;14.90;5.53;;;;;;;;;;4998568;28;20046;-79
2022/01/19 04:17:01;;;;;;;16.33;6.75;;;;;;;;;;4998843;28;20046;-79
2022/01/19 04:19:31;;;;;;;14.03;7.53;;;;;;;;;;4998417;28;20121;-78
2022/01/19 04:22:00;;;;;;;18.63;7.90;;;;;;;;;;4998981;28;20046;-79
2022/01/19 04:24:27;;;;;;;19.75;8.20;;;;;;;;;;4999673;28;20050;-79
2022/01/19 04:27:31;;;;;;;15.25;6.97;;;;;;;;;;4998453;28;20205;-78
2022/01/19 04:29:53;;;;;;;15.70;6.25;;;;;;;;;;4998184;28;20054;-79
2022/01/19 04:32:27;;;;;;;15.70;6.85;;;;;;;;;;4998123;28;20050;-78
2022/01/19 04:34:54;;;;;;;14.63;6.53;;;;;;;;;;5000033;28;20061;-78
2022/01/19 04:48:37;;;;;;;11.15;5.30;;;;;;;;;;4987717;28;20054;-77
2022/01/19 04:54:30;;;;;;;11.95;6.10;;;;;;;;;;4998403;28;20516;-78
2022/01/19 05:02:45;;;;;;;13.23;6.30;;;;;;;;;;4977941;28;20050;-78
2022/01/19 05:05:20;;;;;;;13.98;5.95;;;;;;;;;;4999227;28;20060;-77
2022/01/19 05:07:57;;;;;;;14.73;6.10;;;;;;;;;;4997875;28;20054;-78
2022/01/19 05:13:30;;;;;;;12.95;5.85;;;;;;;;;;4993917;28;20069;-77
2022/01/19 05:15:57;;;;;;;12.43;5.65;;;;;;;;;;4993995;28;20046;-76
2022/01/19 05:18:24;;;;;;;9.00;5.20;;;;;;;;;;4994560;28;20069;-78
2022/01/19 05:20:52;;;;;;;16.50;6.40;;;;;;;;;;4995802;28;20050;-77
2022/01/19 05:23:19;;;;;;;12.95;5.82;;;;;;;;;;4997667;28;20046;-77
2022/01/19 05:25:46;;;;;;;15.20;5.80;;;;;;;;;;4998297;28;20046;-78
2022/01/19 05:28:13;;;;;;;12.63;5.65;;;;;;;;;;4996313;28;20046;-78
2022/01/19 05:30:40;;;;;;;12.27;6.65;;;;;;;;;;4996633;28;20046;-78
2022/01/19 05:33:07;;;;;;;14.55;6.32;;;;;;;;;;4997059;28;20042;-78
2022/01/19 05:35:34;;;;;;;14.57;6.38;;;;;;;;;;4997100;28;20121;-78
2022/01/19 05:38:02;;;;;;;15.15;6.43;;;;;;;;;;4997155;28;20050;-78
2022/01/19 05:40:29;;;;;;;14.73;6.22;;;;;;;;;;5008323;28;20046;-78
2022/01/19 05:42:56;;;;;;;14.38;7.45;;;;;;;;;;5013924;28;20073;-77
2022/01/19 05:45:24;;;;;;;16.02;7.00;;;;;;;;;;5013982;28;20046;-77
2022/01/19 05:47:50;;;;;;;19.48;7.03;;;;;;;;;;5013061;28;20054;-78
2022/01/19 05:50:17;;;;;;;16.58;8.23;;;;;;;;;;5001982;28;20494;-77
2022/01/19 05:52:44;;;;;;;21.52;8.40;;;;;;;;;;4993522;28;20050;-78
2022/01/19 05:55:16;;;;;;;21.90;9.90;;;;;;;;;;4995247;28;20638;-78
2022/01/19 05:57:43;;;;;;;18.92;8.95;;;;;;;;;;4997510;28;20050;-79
2022/01/19 06:00:11;;;;;;;21.77;8.93;;;;;;;;;;4997155;28;20105;-79
2022/01/19 06:02:38;;;;;;;21.77;9.77;;;;;;;;;;4998696;28;20058;-79
2022/01/19 06:05:05;;;;;;;20.45;9.32;;;;;;;;;;4997678;28;20058;-77
2022/01/19 06:07:41;;;;;;;23.23;10.32;;;;;;;;;;4998800;28;20050;-78
2022/01/19 06:10:10;;;;;;;23.38;9.55;;;;;;;;;;4998487;28;20101;-79
2022/01/19 06:12:43;;;;;;;23.65;9.85;;;;;;;;;;5003580;28;20085;-79
2022/01/19 06:15:09;;;;;;;22.88;9.70;;;;;;;;;;5010345;28;20113;-79
2022/01/19 06:17:36;;;;;;;23.40;10.98;;;;;;;;;;5008761;28;20050;-78
2022/01/19 06:20:06;;;;;;;27.33;11.95;;;;;;;;;;5005149;28;20051;-77
2022/01/19 06:22:33;;;;;;;23.50;10.95;;;;;;;;;;5002847;28;20054;-78
2022/01/19 06:25:00;;;;;;;30.33;11.48;;;;;;;;;;5000766;28;20469;-78
2022/01/19 06:27:26;;;;;;;22.02;10.80;;;;;;;;;;5001739;28;20054;-80
2022/01/19 06:29:56;;;;;;;26.90;10.95;;;;;;;;;;5000299;28;20100;-79
2022/01/19 06:32:23;;;;;;;24.90;10.45;;;;;;;;;;5000107;28;20484;-78
2022/01/19 06:34:50;;;;;;;25.83;12.00;;;;;;;;;;5000779;28;20524;-78
2022/01/19 06:37:17;;;;;;;26.65;11.15;;;;;;;;;;4999625;28;20587;-78
2022/01/19 06:39:44;;;;;;;24.77;11.52;;;;;;;;;;4999857;28;20104;-77
2022/01/19 06:42:10;;;;;;;27.02;12.82;;;;;;;;;;5001716;28;20073;-77
2022/01/19 06:44:37;;;;;;;31.48;14.20;;;;;;;;;;5001902;28;20055;-79
2022/01/19 06:47:06;;;;;;;29.38;12.40;;;;;;;;;;4999003;28;20505;-77
2022/01/19 06:49:32;;;;;;;28.95;12.68;;;;;;;;;;4997904;28;20112;-77
2022/01/19 06:51:59;;;;;;;26.15;12.35;;;;;;;;;;4996307;28;20583;-77
2022/01/19 06:54:26;;;;;;;30.83;11.98;;;;;;;;;;4996743;28;20085;-77
2022/01/19 06:56:53;;;;;;;27.40;12.20;;;;;;;;;;4996640;28;20054;-78
2022/01/19 06:59:20;;;;;;;26.10;11.02;;;;;;;;;;4996681;28;20505;-77
2022/01/19 07:01:46;;;;;;;22.00;11.00;;;;;;;;;;4999279;28;20489;-78
2022/01/19 07:04:16;;;;;;;28.05;12.38;;;;;;;;;;4998710;28;20564;-77
2022/01/19 07:06:43;;;;;;;29.45;12.60;;;;;;;;;;4997469;28;20055;-78
2022/01/19 07:09:10;;;;;;;28.58;12.10;;;;;;;;;;4998717;28;20101;-78
2022/01/19 07:11:37;;;;;;;30.25;11.70;;;;;;;;;;5001447;28;20043;-78
2022/01/19 07:14:04;;;;;;;27.67;12.98;;;;;;;;;;5001628;28;20042;-78
2022/01/19 07:16:31;;;;;;;24.40;11.07;;;;;;;;;;5002085;28;20042;-77
2022/01/19 07:18:58;;;;;;;28.40;12.05;;;;;;;;;;5003690;28;20045;-78
2022/01/19 07:21:27;;;;;;;28.45;12.73;;;;;;;;;;5011299;28;20105;-78
2022/01/19 07:23:54;;;;;;;28.92;11.88;;;;;;;;;;5013693;28;20066;-78
2022/01/19 07:26:20;;;;;;;27.17;12.70;;;;;;;;;;5015061;28;20054;-77
2022/01/19 07:28:47;;;;;;;31.35;12.65;;;;;;;;;;5007715;28;20050;-77
2022/01/19 07:31:14;;;;;;;29.60;11.77;;;;;;;;;;5011711;28;20114;-78
2022/01/19 07:33:41;;;;;;;28.77;12.13;;;;;;;;;;4995047;28;20042;-78
2022/01/19 07:36:08;;;;;;;30.27;12.95;;;;;;;;;;4987204;28;20043;-79
2022/01/19 07:38:36;;;;;;;36.17;12.98;;;;;;;;;;4978883;28;20413;-77
2022/01/19 07:41:03;;;;;;;32.25;12.73;;;;;;;;;;4985025;28;20062;-79
2022/01/19 07:43:29;;;;;;;29.65;12.68;;;;;;;;;;4987188;28;20057;-78
2022/01/19 07:45:56;;;;;;;38.25;14.70;;;;;;;;;;4990289;28;20042;-78
2022/01/19 07:48:23;;;;;;;31.42;13.50;;;;;;;;;;5000548;28;20336;-77
2022/01/19 07:50:50;;;;;;;31.40;12.43;;;;;;;;;;4986149;28;20042;-77
2022/01/19 07:53:16;;;;;;;28.70;13.13;;;;;;;;;;4988611;28;20505;-77
2022/01/19 07:55:46;;;;;;;29.05;12.18;;;;;;;;;;4990873;28;20105;-78
2022/01/19 07:58:14;;;;;;;33.55;12.82;;;;;;;;;;4986653;28;20039;-78
2022/01/19 08:00:42;;;;;;;31.02;12.40;;;;;;;;;;4988793;28;20493;-79
2022/01/19 08:03:09;;;;;;;32.22;13.80;;;;;;;;;;4990949;28;20497;-78
2022/01/19 08:05:36;;;;;;;26.88;12.35;;;;;;;;;;4989837;28;20054;-79
2022/01/19 08:08:03;;;;;;;31.33;13.68;;;;;;;;;;4994544;28;20042;-79
2022/01/19 08:10:30;;;;;;;30.67;13.50;;;;;;;;;;4999444;28;20137;-78
2022/01/19 08:13:02;;;;;;;30.60;12.65;;;;;;;;;;5001482;28;20046;-77
2022/01/19 08:15:29;;;;;;;28.70;12.35;;;;;;;;;;4990853;28;20038;-77
2022/01/19 08:17:56;;;;;;;27.55;11.98;;;;;;;;;;4995307;28;20050;-78
2022/01/19 08:20:23;;;;;;;30.70;13.05;;;;;;;;;;4993891;28;20042;-78
2022/01/19 08:22:49;;;;;;;33.15;14.70;;;;;;;;;;4995842;28;20047;-78
2022/01/19 08:25:17;;;;;;;30.25;12.30;;;;;;;;;;4996585;28;20042;-79
2022/01/19 08:27:43;;;;;;;29.25;12.35;;;;;;;;;;4996488;28;20528;-79
2022/01/19 08:30:13;;;;;;;26.80;13.85;;;;;;;;;;5001436;28;20042;-76
2022/01/19 08:32:40;;;;;;;32.63;14.15;;;;;;;;;;5009675;28;20054;-78
2022/01/19 08:35:08;;;;;;;32.55;13.45;;;;;;;;;;5006443;28;20050;-78
2022/01/19 08:37:36;;;;;;;32.60;13.10;;;;;;;;;;5006562;28;20050;-78
2022/01/19 08:40:05;;;;;;;29.17;12.88;;;;;;;;;;5005210;28;20054;-78
2022/01/19 08:42:33;;;;;;;27.83;13.05;;;;;;;;;;5003903;28;20062;-77
2022/01/19 08:45:04;;;;;;;31.98;13.50;;;;;;;;;;5004486;28;20124;-78
2022/01/19 08:47:33;;;;;;;29.92;13.05;;;;;;;;;;5010081;28;20077;-77
2022/01/19 08:50:00;;;;;;;30.20;12.43;;;;;;;;;;5010492;28;20046;-77
2022/01/19 08:52:27;;;;;;;36.25;13.10;;;;;;;;;;5005725;28;20391;-78
2022/01/19 08:54:53;;;;;;;32.35;14.02;;;;;;;;;;5004662;28;20061;-78
2022/01/19 08:57:20;;;;;;;29.23;13.65;;;;;;;;;;5003801;28;20046;-77
2022/01/19 08:59:47;;;;;;;27.42;14.27;;;;;;;;;;5004543;28;20106;-78
2022/01/19 09:02:14;;;;;;;27.52;12.82;;;;;;;;;;5002630;28;20374;-78
2022/01/19 09:04:42;;;;;;;25.20;11.35;;;;;;;;;;5003268;28;20054;-78
2022/01/19 09:07:09;;;;;;;26.88;12.15;;;;;;;;;;5002720;28;20057;-78
2022/01/19 09:09:36;;;;;;;28.20;13.13;;;;;;;;;;5004858;28;20055;-78
2022/01/19 09:12:03;;;;;;;28.33;13.27;;;;;;;;;;5003648;28;20162;-78
2022/01/19 09:14:31;;;;;;;27.75;12.07;;;;;;;;;;5003018;28;20038;-78
2022/01/19 09:16:58;;;;;;;28.55;13.02;;;;;;;;;;5003483;28;20058;-79
2022/01/19 09:19:25;;;;;;;24.63;12.32;;;;;;;;;;5003066;28;20094;-78
2022/01/19 09:21:55;;;;;;;25.58;12.77;;;;;;;;;;5002626;28;20050;-79
2022/01/19 09:24:22;;;;;;;25.75;12.05;;;;;;;;;;5002866;28;20046;-78
2022/01/19 09:26:49;;;;;;;27.58;12.10;;;;;;;;;;5002350;28;20050;-78
2022/01/19 09:29:16;;;;;;;30.50;13.48;;;;;;;;;;5007055;28;20062;-78
2022/01/19 09:31:44;;;;;;;24.42;11.15;;;;;;;;;;5005324;28;20058;-78
2022/01/19 09:34:15;;;;;;;30.05;13.57;;;;;;;;;;4999573;28;20042;-81
2022/01/19 09:36:46;;;;;;;30.80;13.02;;;;;;;;;;4996533;28;20048;-79
2022/01/19 09:39:16;;;;;;;26.98;13.45;;;;;;;;;;4996733;28;20065;-79
2022/01/19 09:41:45;;;;;;;30.52;13.80;;;;;;;;;;4997989;28;20046;-81
2022/01/19 09:44:12;;;;;;;32.25;14.88;;;;;;;;;;4998402;28;20050;-78
2022/01/19 09:46:39;;;;;;;30.80;14.02;;;;;;;;;;4995911;28;20052;-78
2022/01/19 09:49:06;;;;;;;32.42;14.80;;;;;;;;;;4997815;28;20042;-78
2022/01/19 09:51:34;;;;;;;27.42;12.88;;;;;;;;;;5000849;28;20061;-78
2022/01/19 09:54:01;;;;;;;26.13;13.10;;;;;;;;;;5061394;23;20045;-61
2022/01/19 09:56:29;;;;;;;27.00;12.70;;;;;;;;;;5029702;28;20046;-63
2022/01/19 09:58:56;;;;;;;26.60;12.40;;;;;;;;;;5030472;28;20056;-62
2022/01/19 10:01:26;;;;;;;26.40;12.13;;;;;;;;;;5030108;28;20054;-62
2022/01/19 10:03:54;;;;;;;29.92;13.35;;;;;;;;;;5030062;28;20052;-63
2022/01/19 10:06:23;;;;;;;27.05;11.90;;;;;;;;;;5030481;28;20061;-63
2022/01/19 10:08:52;;;;;;;32.00;13.27;;;;;;;;;;5029993;28;20107;-64
2022/01/19 10:11:27;;;;;;;24.52;11.38;;;;;;;;;;5013698;28;20413;-61
2022/01/19 10:17:00;;;;;;;25.20;11.85;;;;;;;;;;4990248;28;20185;-63
2022/01/19 10:19:29;;;;;;;26.02;12.43;;;;;;;;;;5004169;28;20133;-63
2022/01/19 10:22:01;;;;;;;25.83;12.10;;;;;;;;;;5009722;28;20046;-64
2022/01/19 10:24:39;;;;;;;27.98;11.57;;;;;;;;;;5010367;28;20053;-63
2022/01/19 10:27:35;;;;;;;26.23;12.20;;;;;;;;;;5010165;28;20072;-63
2022/01/19 10:30:25;;;;;;;27.25;11.90;;;;;;;;;;4975285;28;20046;-63
2022/01/19 10:32:56;;;;;;;25.48;12.02;;;;;;;;;;5010149;28;20053;-61
2022/01/19 10:35:26;;;;;;;23.83;11.48;;;;;;;;;;5009863;28;20411;-63
2022/01/19 10:38:09;;;;;;;23.70;10.68;;;;;;;;;;5000931;28;20362;-63
2022/01/19 10:40:38;;;;;;;23.17;10.68;;;;;;;;;;4999337;28;20093;-63
2022/01/19 10:43:27;;;;;;;21.58;11.60;;;;;;;;;;4998839;28;20046;-63
2022/01/19 10:45:57;;;;;;;24.67;12.13;;;;;;;;;;4990340;28;20077;-62
2022/01/19 10:48:35;;;;;;;26.92;12.95;;;;;;;;;;4989899;28;20064;-63
2022/01/19 10:51:10;;;;;;;28.38;12.52;;;;;;;;;;4990139;28;20514;-62
2022/01/19 10:53:37;;;;;;;22.75;12.05;;;;;;;;;;4989902;28;20491;-62
2022/01/19 10:56:06;;;;;;;23.75;12.18;;;;;;;;;;4989824;28;20515;-62
2022/01/19 10:58:33;;;;;;;28.10;12.93;;;;;;;;;;4993252;28;20062;-62
2022/01/19 11:01:02;;;;;;;27.67;12.32;;;;;;;;;;4993298;28;20060;-62
2022/01/19 11:03:30;;;;;;;18.45;9.38;;;;;;;;;;4993564;28;20472;-62
2022/01/19 11:05:58;;;;;;;24.70;12.07;;;;;;;;;;4994902;28;20060;-61
2022/01/19 11:08:27;;;;;;;25.85;11.23;;;;;;;;;;5001418;28;20415;-63
2022/01/19 11:10:55;;;;;;;22.88;11.35;;;;;;;;;;4993731;28;20412;-63
2022/01/19 11:13:31;;;;;;;23.02;10.95;;;;;;;;;;4995892;28;20399;-61
2022/01/19 11:16:02;;;;;;;21.60;10.27;;;;;;;;;;4995806;28;20363;-64
2022/01/19 11:18:30;;;;;;;19.52;10.50;;;;;;;;;;4993765;28;20046;-65
2022/01/19 11:20:58;;;;;;;20.83;10.10;;;;;;;;;;4993607;28;20050;-63
2022/01/19 11:23:34;;;;;;;22.02;10.52;;;;;;;;;;4993435;28;20298;-62
2022/01/19 11:26:04;;;;;;;17.95;10.10;;;;;;;;;;4993320;28;20224;-63
2022/01/19 11:28:34;;;;;;;21.38;10.38;;;;;;;;;;4992662;28;20082;-64
2022/01/19 11:31:06;;;;;;;16.40;9.05;;;;;;;;;;4993080;28;20069;-64
2022/01/19 11:33:41;;;;;;;20.92;9.20;;;;;;;;;;5002195;28;20507;-64
2022/01/19 11:36:20;;;;;;;20.63;9.68;;;;;;;;;;4998437;28;20052;-67
2022/01/19 11:38:49;;;;;;;18.35;9.15;;;;;;;;;;4993822;28;20050;-69
2022/01/19 11:41:45;;;;;;;17.42;10.18;;;;;;;;;;5012374;28;20054;-68
2022/01/19 11:44:16;;;;;;;18.25;9.38;;;;;;;;;;5013037;28;20148;-66
2022/01/19 11:46:48;;;;;;;14.48;8.65;;;;;;;;;;5007171;28;20053;-63
2022/01/19 11:49:17;;;;;;;17.52;9.52;;;;;;;;;;4993322;28;20050;-63
2022/01/19 11:51:46;;;;;;;20.45;10.15;;;;;;;;;;4992487;28;20109;-64
2022/01/19 11:54:17;;;;;;;16.30;9.10;;;;;;;;;;4992464;28;20050;-64
2022/01/19 11:57:02;;;;;;;;;;;;;;;;;;4993289;28;20050;-63
2022/01/19 11:59:32;;;;;;;18.23;9.07;;;;;;;;;;4993291;28;19929;-62
2022/01/19 12:02:36;;;;;;;16.63;8.43;;;;;;;;;;4994244;28;20043;-64
2022/01/19 12:05:22;;;;;;;17.52;9.55;;;;;;;;;;5012425;28;20049;-64
2022/01/19 12:07:52;;;;;;;15.45;9.20;;;;;;;;;;5011424;28;20038;-67
2022/01/19 12:10:22;;;;;;;15.50;8.93;;;;;;;;;;5006305;28;20042;-64
2022/01/19 12:13:28;;;;;;;17.73;9.80;;;;;;;;;;4991029;28;20069;-64
2022/01/19 12:16:00;;;;;;;17.50;9.35;;;;;;;;;;4992222;28;20149;-67
2022/01/19 12:18:50;;;;;;;17.40;9.57;;;;;;;;;;4991897;28;20046;-63
2022/01/19 12:21:40;;;;;;;20.67;10.67;;;;;;;;;;4989572;28;20480;-63
2022/01/19 12:24:19;;;;;;;17.00;9.25;;;;;;;;;;4992154;28;20054;-64
2022/01/19 12:26:56;;;;;;;19.52;10.63;;;;;;;;;;4991835;28;20050;-63
2022/01/19 12:29:47;;;;;;;17.20;9.10;;;;;;;;;;4992072;28;20053;-62
2022/01/19 12:32:45;;;;;;;19.30;9.90;;;;;;;;;;4992493;28;20058;-62
2022/01/19 12:35:19;;;;;;;15.65;8.60;;;;;;;;;;4992222;28;20061;-62
2022/01/19 12:37:48;;;;;;;19.52;9.23;;;;;;;;;;5006730;28;20050;-63
2022/01/19 12:40:35;;;;;;;17.50;10.05;;;;;;;;;;5011735;28;20483;-63
2022/01/19 12:43:04;;;;;;;16.55;9.63;;;;;;;;;;5011641;28;20506;-63
2022/01/19 12:45:33;;;;;;;17.27;9.93;;;;;;;;;;5011466;28;20054;-63
2022/01/19 12:48:02;;;;;;;15.95;8.88;;;;;;;;;;5000504;28;20160;-64
2022/01/19 12:50:39;;;;;;;17.05;9.57;;;;;;;;;;5010632;28;20171;-63
2022/01/19 12:53:10;;;;;;;17.80;9.77;;;;;;;;;;5011553;28;20045;-63
2022/01/19 12:55:39;;;;;;;19.13;10.80;;;;;;;;;;5011091;28;20049;-63
2022/01/19 12:58:12;;;;;;;16.20;9.30;;;;;;;;;;5011214;28;20046;-64
2022/01/19 13:00:40;;;;;;;18.75;9.07;;;;;;;;;;5011030;28;20116;-64
2022/01/19 13:03:17;;;;;;;17.60;9.73;;;;;;;;;;4993493;28;20047;-64
2022/01/19 13:05:52;;;;;;;15.25;9.05;;;;;;;;;;4992385;28;20048;-64
2022/01/19 13:08:32;;;;;;;17.10;10.02;;;;;;;;;;5010985;28;20470;-64
2022/01/19 13:11:06;;;;;;;15.32;8.52;;;;;;;;;;5010738;28;20070;-64
2022/01/19 13:13:53;;;;;;;18.10;9.40;;;;;;;;;;5011338;28;20057;-64
2022/01/19 13:16:40;;;;;;;15.70;9.48;;;;;;;;;;5003067;28;20488;-63
2022/01/19 13:19:10;;;;;;;18.30;10.23;;;;;;;;;;4999817;28;20125;-63
2022/01/19 13:21:39;;;;;;;17.98;10.32;;;;;;;;;;5011073;28;20046;-63
2022/01/19 13:24:12;;;;;;;18.23;10.05;;;;;;;;;;5010664;28;20050;-63
2022/01/19 13:26:42;;;;;;;15.68;9.18;;;;;;;;;;5010631;28;20112;-64
2022/01/19 13:29:20;;;;;;;18.58;9.90;;;;;;;;;;5010918;28;20064;-65
2022/01/19 13:32:00;;;;;;;19.13;9.57;;;;;;;;;;5010718;28;20048;-62
2022/01/19 13:34:28;;;;;;;15.00;8.93;;;;;;;;;;5010754;28;20056;-63
2022/01/19 13:36:59;;;;;;;19.90;9.60;;;;;;;;;;5009414;28;20081;-62
2022/01/19 13:39:28;;;;;;;16.80;8.75;;;;;;;;;;5010496;28;20050;-63
2022/01/19 13:41:57;;;;;;;16.63;9.30;;;;;;;;;;5006378;28;20054;-63
2022/01/19 13:44:30;;;;;;;17.23;9.77;;;;;;;;;;4990335;28;20058;-63
2022/01/19 13:47:05;;;;;;;16.90;9.32;;;;;;;;;;4990653;28;20046;-64
2022/01/19 13:49:32;;;;;;;18.52;9.98;;;;;;;;;;4990868;28;20132;-65
2022/01/19 13:52:01;;;;;;;18.38;9.73;;;;;;;;;;4990865;28;20521;-70
2022/01/19 13:54:28;;;;;;;16.13;10.00;;;;;;;;;;4990615;28;20133;-67
2022/01/19 13:57:00;;;;;;;16.90;9.93;;;;;;;;;;4990409;28;20050;-64
2022/01/19 13:59:27;;;;;;;18.35;10.05;;;;;;;;;;4990857;28;20054;-64
2022/01/19 14:01:59;;;;;;;16.85;9.43;;;;;;;;;;4991075;28;20062;-64
2022/01/19 14:04:27;;;;;;;17.08;10.05;;;;;;;;;;4990529;28;20142;-64
2022/01/19 14:07:05;;;;;;;16.13;9.27;;;;;;;;;;4990409;28;20050;-64
2022/01/19 14:09:34;;;;;;;16.80;9.57;;;;;;;;;;4991106;28;20085;-65
2022/01/19 14:12:03;;;;;;;14.95;8.60;;;;;;;;;;4990821;28;20058;-63
2022/01/19 14:14:34;;;;;;;16.17;8.82;;;;;;;;;;4991020;28;20539;-64
2022/01/19 14:17:03;;;;;;;15.45;9.70;;;;;;;;;;4990197;28;20100;-64
2022/01/19 14:19:31;;;;;;;14.98;8.93;;;;;;;;;;5000866;28;20056;-64
2022/01/19 14:22:06;;;;;;;16.40;10.13;;;;;;;;;;5010450;28;20052;-64
2022/01/19 14:24:55;;;;;;;15.65;9.68;;;;;;;;;;5010320;28;20042;-64
2022/01/19 14:27:42;;;;;;;17.20;9.23;;;;;;;;;;4989731;28;20081;-63
2022/01/19 14:30:16;;;;;;;19.30;10.50;;;;;;;;;;4990488;28;20104;-63
2022/01/19 14:32:45;;;;;;;18.38;11.50;;;;;;;;;;4993057;28;20051;-63
2022/01/19 14:35:46;;;;;;;18.48;9.55;;;;;;;;;;4994266;28;20153;-64
2022/01/19 14:38:23;;;;;;;18.02;10.05;;;;;;;;;;4993165;28;20043;-64
2022/01/19 14:40:56;;;;;;;19.38;10.07;;;;;;;;;;4994306;28;20046;-64
2022/01/19 14:43:25;;;;;;;19.77;10.13;;;;;;;;;;4994613;28;20054;-63
2022/01/19 14:46:00;;;;;;;17.92;10.50;;;;;;;;;;4993867;28;20117;-64
2022/01/19 14:48:28;;;;;;;19.95;10.93;;;;;;;;;;4993744;28;20089;-63
2022/01/19 14:50:55;;;;;;;20.52;11.30;;;;;;;;;;4993700;28;20491;-63
2022/01/19 14:53:24;;;;;;;20.25;10.93;;;;;;;;;;4993933;28;20050;-63
2022/01/19 14:55:51;;;;;;;16.70;9.77;;;;;;;;;;4993262;28;20486;-64
2022/01/19 14:58:18;;;;;;;16.02;9.57;;;;;;;;;;4993186;28;20046;-64
2022/01/19 15:00:45;;;;;;;22.60;11.18;;;;;;;;;;4993630;28;20054;-63
2022/01/19 15:03:12;;;;;;;20.45;12.30;;;;;;;;;;4993786;28;20058;-63
2022/01/19 15:05:41;;;;;;;21.25;11.55;;;;;;;;;;5004062;28;20081;-63
2022/01/19 15:08:10;;;;;;;18.23;10.60;;;;;;;;;;5013320;28;20052;-63
2022/01/19 15:10:38;;;;;;;20.08;10.18;;;;;;;;;;5013743;28;20054;-64
2022/01/19 15:13:07;;;;;;;16.90;9.98;;;;;;;;;;5013353;28;20050;-63
2022/01/19 15:15:36;;;;;;;21.88;11.02;;;;;;;;;;5013225;28;20112;-63
2022/01/19 15:18:05;;;;;;;18.27;10.38;;;;;;;;;;5013223;28;20046;-64
2022/01/19 15:20:35;;;;;;;18.27;10.18;;;;;;;;;;4993967;28;20078;-63
2022/01/19 15:23:02;;;;;;;18.73;10.23;;;;;;;;;;4993492;28;20137;-65
2022/01/19 15:25:30;;;;;;;22.48;11.15;;;;;;;;;;4993923;28;20112;-63
2022/01/19 15:28:00;;;;;;;18.63;10.05;;;;;;;;;;4993216;28;20056;-63
2022/01/19 15:30:28;;;;;;;19.95;11.00;;;;;;;;;;4993456;28;20050;-63
2022/01/19 15:32:55;;;;;;;19.42;9.50;;;;;;;;;;4993503;28;20046;-64
2022/01/19 15:35:22;;;;;;;21.35;10.05;;;;;;;;;;4993260;28;20686;-64
2022/01/19 15:37:50;;;;;;;14.23;8.38;;;;;;;;;;4993195;28;20403;-65
2022/01/19 15:40:18;;;;;;;15.85;9.52;;;;;;;;;;5000214;28;20219;-62